createdAt,value
2023-02-07T00:00:21.668Z,4.50
2023-02-07T00:02:49.685Z,6.30
2023-02-07T00:05:16.914Z,4.00
2023-02-07T00:07:43.656Z,5.67
2023-02-07T00:10:10.706Z,5.77
2023-02-07T00:12:37.403Z,6.90
2023-02-07T00:15:04.706Z,4.70
2023-02-07T00:17:32.237Z,5.87
2023-02-07T00:19:58.924Z,5.13
2023-02-07T00:22:25.617Z,6.10
2023-02-07T00:24:52.261Z,5.83
2023-02-07T00:27:19.104Z,8.70
2023-02-07T00:29:45.761Z,6.70
2023-02-07T00:32:12.340Z,9.70
2023-02-07T00:34:38.963Z,6.83
2023-02-07T00:37:06.229Z,7.83
2023-02-07T00:39:32.949Z,7.97
2023-02-07T00:41:59.827Z,9.03
2023-02-07T00:44:27.408Z,8.97
2023-02-07T00:46:54.101Z,6.97
2023-02-07T00:49:21.057Z,8.60
2023-02-07T00:51:47.731Z,8.37
2023-02-07T00:54:14.266Z,10.07
2023-02-07T00:56:41.136Z,6.47
2023-02-07T00:59:07.879Z,8.23
2023-02-07T01:01:34.675Z,7.60
2023-02-07T01:04:01.738Z,9.83
2023-02-07T01:06:29.641Z,7.40
2023-02-07T01:08:58.207Z,8.60
2023-02-07T01:11:25.091Z,8.63
2023-02-07T01:13:52.098Z,8.83
2023-02-07T01:16:23.376Z,9.97
2023-02-07T01:18:50.390Z,8.23
2023-02-07T01:21:23.532Z,8.07
2023-02-07T01:23:50.445Z,6.70
2023-02-07T01:26:17.601Z,11.50
2023-02-07T01:28:44.178Z,7.27
2023-02-07T01:31:13.472Z,7.00
2023-02-07T01:33:40.300Z,7.10
2023-02-07T01:36:13.317Z,10.23
2023-02-07T01:38:40.213Z,9.57
2023-02-07T01:41:07.272Z,11.27
2023-02-07T01:43:34.670Z,8.40
2023-02-07T01:46:01.540Z,7.23
2023-02-07T01:48:35.585Z,10.27
2023-02-07T01:51:06.532Z,9.50
2023-02-07T01:53:36.723Z,6.63
2023-02-07T01:56:09.181Z,8.80
2023-02-07T01:58:38.229Z,7.90
2023-02-07T02:01:09.999Z,9.27
2023-02-07T02:03:43.005Z,9.23
2023-02-07T02:06:11.568Z,8.30
2023-02-07T02:08:38.138Z,9.07
2023-02-07T02:11:17.131Z,7.77
2023-02-07T02:14:04.459Z,7.57
2023-02-07T02:16:49.644Z,7.27
2023-02-07T02:19:23.356Z,10.80
2023-02-07T02:22:13.739Z,7.13
2023-02-07T02:24:40.251Z,8.93
2023-02-07T02:27:36.077Z,12.27
2023-02-07T02:30:20.151Z,5.20
2023-02-07T02:32:49.519Z,6.97
2023-02-07T02:35:45.356Z,7.83
2023-02-07T02:38:26.321Z,6.80
2023-02-07T02:41:01.769Z,7.07
2023-02-07T02:43:40.919Z,9.47
2023-02-07T02:46:15.218Z,6.83
2023-02-07T02:48:44.252Z,10.27
2023-02-07T02:51:11.025Z,6.63
2023-02-07T02:53:37.699Z,8.87
2023-02-07T02:56:19.727Z,8.00
2023-02-07T02:59:13.636Z,8.17
2023-02-07T03:01:49.411Z,23.73
2023-02-07T03:05:02.227Z,11.33
2023-02-07T03:07:34.912Z,9.87
2023-02-07T03:10:29.331Z,9.03
2023-02-07T03:12:58.938Z,8.93
2023-02-07T03:15:42.223Z,10.57
2023-02-07T03:18:25.121Z,9.37
2023-02-07T03:21:00.467Z,9.13
2023-02-07T03:23:29.842Z,11.27
2023-02-07T03:26:00.525Z,9.10
2023-02-07T03:28:30.703Z,9.20
2023-02-07T03:30:59.621Z,6.90
2023-02-07T03:33:26.555Z,9.47
2023-02-07T03:36:11.914Z,8.43
2023-02-07T03:38:38.852Z,9.90
2023-02-07T03:41:12.963Z,9.30
2023-02-07T03:43:41.243Z,9.80
2023-02-07T03:46:09.771Z,7.30
2023-02-07T03:48:36.557Z,7.27
2023-02-07T03:51:03.374Z,9.50
2023-02-07T03:53:29.936Z,8.60
2023-02-07T03:55:56.729Z,7.93
2023-02-07T03:58:23.364Z,7.83
2023-02-07T04:00:50.026Z,10.73
2023-02-07T04:03:16.719Z,9.43
2023-02-07T04:05:45.976Z,9.93
2023-02-07T04:08:13.955Z,9.23
2023-02-07T04:10:40.754Z,10.20
2023-02-07T04:13:07.387Z,9.07
2023-02-07T04:15:34.139Z,9.63
2023-02-07T04:18:00.994Z,12.50
2023-02-07T04:20:27.607Z,13.60
2023-02-07T04:22:54.184Z,8.67
2023-02-07T04:25:20.750Z,15.20
2023-02-07T04:27:47.412Z,7.43
2023-02-07T04:30:14.175Z,7.17
2023-02-07T04:32:40.803Z,9.27
2023-02-07T04:35:07.910Z,9.43
2023-02-07T04:37:34.528Z,6.57
2023-02-07T04:40:01.090Z,9.13
2023-02-07T04:42:27.717Z,10.77
2023-02-07T04:44:54.356Z,10.03
2023-02-07T04:47:21.058Z,9.93
2023-02-07T04:49:47.687Z,11.50
2023-02-07T04:52:14.333Z,11.17
2023-02-07T04:54:41.247Z,11.37
2023-02-07T04:57:07.760Z,13.50
2023-02-07T04:59:34.446Z,11.53
2023-02-07T05:02:01.174Z,7.50
2023-02-07T05:04:27.923Z,8.53
2023-02-07T05:06:54.605Z,9.20
2023-02-07T05:09:21.454Z,12.73
2023-02-07T05:11:48.056Z,8.63
2023-02-07T05:14:14.697Z,12.03
2023-02-07T05:16:41.660Z,11.60
2023-02-07T05:19:08.386Z,8.67
2023-02-07T05:21:34.938Z,9.87
2023-02-07T05:24:01.891Z,11.97
2023-02-07T05:26:28.488Z,9.37
2023-02-07T05:28:55.049Z,12.73
2023-02-07T05:31:42.078Z,8.93
2023-02-07T05:34:08.686Z,11.73
2023-02-07T05:36:36.100Z,12.13
2023-02-07T05:39:04.377Z,11.87
2023-02-07T05:41:31.005Z,10.57
2023-02-07T05:43:57.762Z,10.03
2023-02-07T05:46:24.419Z,11.43
2023-02-07T05:48:51.080Z,10.10
2023-02-07T05:51:17.772Z,11.23
2023-02-07T05:53:44.517Z,11.63
2023-02-07T05:56:11.269Z,9.90
2023-02-07T05:58:37.852Z,13.70
2023-02-07T06:01:04.802Z,12.00
2023-02-07T06:03:31.368Z,12.80
2023-02-07T06:05:57.995Z,11.80
2023-02-07T06:08:24.724Z,18.53
2023-02-07T06:10:51.326Z,10.43
2023-02-07T06:13:17.924Z,10.57
2023-02-07T06:15:44.654Z,13.20
2023-02-07T06:18:11.272Z,8.30
2023-02-07T06:20:37.841Z,11.00
2023-02-07T06:23:04.599Z,10.67
2023-02-07T06:25:31.186Z,10.33
2023-02-07T06:27:58.154Z,12.23
2023-02-07T06:30:24.968Z,13.40
2023-02-07T06:32:51.509Z,15.13
2023-02-07T06:35:18.136Z,15.23
2023-02-07T06:37:44.692Z,12.13
2023-02-07T06:40:11.561Z,13.40
2023-02-07T06:42:38.107Z,13.43
2023-02-07T06:45:05.027Z,14.23
2023-02-07T06:47:31.567Z,22.10
2023-02-07T06:49:58.230Z,15.57
2023-02-07T06:52:24.900Z,17.23
2023-02-07T06:54:51.482Z,14.50
2023-02-07T06:57:18.038Z,16.73
2023-02-07T06:59:44.751Z,14.37
2023-02-07T07:02:13.089Z,12.53
2023-02-07T07:04:39.650Z,13.27
2023-02-07T07:07:06.452Z,13.40
2023-02-07T07:09:33.127Z,14.47
2023-02-07T07:11:59.665Z,10.43
2023-02-07T07:14:26.411Z,12.10
2023-02-07T07:16:53.908Z,12.60
2023-02-07T07:19:22.429Z,14.73
2023-02-07T07:21:49.169Z,12.60
2023-02-07T07:24:15.820Z,13.97
2023-02-07T07:26:49.561Z,13.93
2023-02-07T07:29:18.120Z,12.33
2023-02-07T07:31:45.710Z,11.77
2023-02-07T07:34:13.045Z,13.57
2023-02-07T07:36:39.655Z,11.10
2023-02-07T07:39:08.449Z,13.43
2023-02-07T07:41:35.073Z,15.00
2023-02-07T07:44:01.689Z,12.97
2023-02-07T07:46:28.457Z,18.97
2023-02-07T07:48:55.074Z,11.87
2023-02-07T07:51:21.837Z,15.40
2023-02-07T07:53:48.438Z,16.43
2023-02-07T07:56:15.062Z,15.30
2023-02-07T07:58:41.864Z,14.93
2023-02-07T08:01:08.457Z,12.27
2023-02-07T08:03:35.109Z,15.53
2023-02-07T08:06:01.980Z,11.37
2023-02-07T08:08:28.554Z,13.80
2023-02-07T08:10:55.306Z,14.57
2023-02-07T08:13:22.552Z,13.83
2023-02-07T08:15:49.182Z,15.70
2023-02-07T08:18:15.757Z,15.00
2023-02-07T08:20:42.631Z,10.67
2023-02-07T08:23:09.281Z,12.30
2023-02-07T08:25:35.873Z,13.83
2023-02-07T08:28:04.518Z,11.23
2023-02-07T08:30:31.548Z,17.07
2023-02-07T08:32:58.343Z,13.97
2023-02-07T08:35:26.708Z,15.73
2023-02-07T08:37:54.216Z,12.93
2023-02-07T08:40:20.894Z,15.43
2023-02-07T08:42:47.949Z,18.67
2023-02-07T08:45:16.091Z,13.67
2023-02-07T08:47:42.662Z,11.43
2023-02-07T08:50:10.211Z,12.30
2023-02-07T08:52:37.205Z,11.47
2023-02-07T08:55:03.992Z,11.30
2023-02-07T08:57:30.798Z,18.40
2023-02-07T08:59:57.584Z,12.80
2023-02-07T09:02:24.297Z,12.03
2023-02-07T09:04:51.753Z,14.43
2023-02-07T09:07:19.244Z,14.73
2023-02-07T09:09:46.980Z,12.17
2023-02-07T09:12:13.727Z,12.07
2023-02-07T09:14:40.942Z,12.87
2023-02-07T09:17:08.786Z,12.20
2023-02-07T09:19:36.529Z,13.63
2023-02-07T09:22:04.338Z,13.73
2023-02-07T09:24:30.977Z,15.50
2023-02-07T09:26:57.682Z,11.93
2023-02-07T09:29:24.411Z,10.87
2023-02-07T09:31:51.468Z,13.63
2023-02-07T09:34:18.578Z,10.93
2023-02-07T09:36:45.286Z,12.77
2023-02-07T09:39:12.061Z,12.10
2023-02-07T09:41:47.912Z,14.70
2023-02-07T09:44:18.980Z,14.77
2023-02-07T09:47:02.577Z,11.70
2023-02-07T09:49:48.515Z,12.03
2023-02-07T09:52:21.170Z,15.23
2023-02-07T09:54:52.909Z,13.83
2023-02-07T09:57:28.634Z,13.80
2023-02-07T10:00:02.648Z,14.40
2023-02-07T10:02:45.010Z,17.40
2023-02-07T10:05:26.204Z,13.47
2023-02-07T10:07:52.899Z,14.47
2023-02-07T10:10:32.296Z,13.57
2023-02-07T10:13:06.983Z,14.67
2023-02-07T10:15:40.949Z,14.67
2023-02-07T10:18:42.872Z,12.93
2023-02-07T10:21:32.274Z,16.00
2023-02-07T10:24:41.586Z,15.17
2023-02-07T10:27:13.517Z,16.23
2023-02-07T10:30:15.198Z,12.17
2023-02-07T10:32:43.538Z,11.87
2023-02-07T10:35:22.789Z,15.37
2023-02-07T10:37:53.769Z,12.67
2023-02-07T10:40:49.121Z,11.50
2023-02-07T10:43:36.274Z,14.40
2023-02-07T10:46:06.927Z,13.37
2023-02-07T10:48:35.072Z,13.07
2023-02-07T10:51:04.580Z,12.93
2023-02-07T10:53:54.350Z,11.93
2023-02-07T10:56:27.315Z,14.33
2023-02-07T10:58:56.007Z,13.93
2023-02-07T11:01:26.760Z,14.07
2023-02-07T11:03:54.721Z,12.40
2023-02-07T11:06:32.894Z,13.97
2023-02-07T11:09:24.272Z,12.83
2023-02-07T11:11:52.779Z,13.67
2023-02-07T11:14:26.485Z,16.87
2023-02-07T11:16:58.092Z,13.80
2023-02-07T11:19:31.782Z,12.57
2023-02-07T11:22:19.548Z,11.47
2023-02-07T11:24:48.029Z,15.30
2023-02-07T11:27:15.783Z,12.80
2023-02-07T11:30:08.281Z,13.67
2023-02-07T11:32:38.351Z,13.50
2023-02-07T11:35:09.587Z,16.53
2023-02-07T11:37:38.695Z,13.37
2023-02-07T11:40:22.522Z,13.90
2023-02-07T11:43:03.747Z,12.80
2023-02-07T11:45:34.671Z,11.90
2023-02-07T11:48:02.897Z,11.87
2023-02-07T11:50:30.525Z,21.47
2023-02-07T11:53:00.584Z,11.43
2023-02-07T11:55:30.757Z,10.83
2023-02-07T11:57:58.126Z,11.80
2023-02-07T12:00:29.831Z,11.03
2023-02-07T12:03:18.370Z,10.53
2023-02-07T12:05:50.246Z,10.23
2023-02-07T12:08:20.465Z,11.50
2023-02-07T12:10:52.684Z,12.40
2023-02-07T12:13:27.241Z,8.70
2023-02-07T12:16:02.445Z,9.77
2023-02-07T12:18:38.015Z,10.30
2023-02-07T12:21:04.937Z,11.80
2023-02-07T12:23:46.583Z,9.27
2023-02-07T12:26:31.942Z,11.97
2023-02-07T12:29:36.572Z,13.00
2023-02-07T12:32:27.398Z,12.57
2023-02-07T12:35:37.729Z,11.30
2023-02-07T12:38:25.184Z,10.70
2023-02-07T12:40:59.615Z,15.13
2023-02-07T12:43:28.146Z,12.00
2023-02-07T12:46:02.493Z,17.77
2023-02-07T12:48:47.514Z,12.33
2023-02-07T12:51:29.770Z,10.50
2023-02-07T12:54:16.023Z,11.50
2023-02-07T12:57:05.703Z,14.17
2023-02-07T12:59:58.309Z,10.97
2023-02-07T13:02:43.084Z,12.17
2023-02-07T13:05:22.941Z,13.40
2023-02-07T13:08:01.078Z,10.07
2023-02-07T13:10:43.502Z,12.27
2023-02-07T13:13:28.061Z,9.87
2023-02-07T13:16:06.465Z,9.87
2023-02-07T13:18:42.205Z,16.47
2023-02-07T13:21:24.628Z,10.70
2023-02-07T13:23:51.358Z,13.17
2023-02-07T13:26:24.863Z,11.03
2023-02-07T13:28:56.247Z,10.87
2023-02-07T13:31:32.787Z,12.43
2023-02-07T13:34:00.314Z,13.10
2023-02-07T13:36:42.445Z,10.13
2023-02-07T13:39:34.490Z,11.13
2023-02-07T13:42:26.045Z,10.60
2023-02-07T13:45:12.349Z,12.10
2023-02-07T13:47:57.803Z,11.90
2023-02-07T13:50:40.294Z,11.37
2023-02-07T13:53:34.939Z,12.30
2023-02-07T13:56:03.896Z,13.00
2023-02-07T13:58:52.469Z,11.10
2023-02-07T14:01:28.386Z,11.03
2023-02-07T14:04:05.245Z,11.03
2023-02-07T14:06:37.098Z,12.33
2023-02-07T14:09:24.471Z,10.73
2023-02-07T14:12:06.569Z,13.83
2023-02-07T14:14:38.820Z,11.17
2023-02-07T14:17:13.839Z,11.77
2023-02-07T14:19:40.644Z,12.47
2023-02-07T14:22:17.068Z,12.13
2023-02-07T14:24:59.049Z,11.50
2023-02-07T14:27:34.961Z,10.40
2023-02-07T14:30:01.683Z,12.30
2023-02-07T14:32:31.743Z,11.60
2023-02-07T14:34:58.243Z,11.07
2023-02-07T14:37:51.708Z,13.17
2023-02-07T14:40:31.815Z,12.73
2023-02-07T14:43:15.864Z,13.80
2023-02-07T14:45:51.375Z,12.33
2023-02-07T14:48:53.040Z,13.67
2023-02-07T14:51:32.013Z,10.10
2023-02-07T14:54:20.223Z,10.53
2023-02-07T14:56:50.010Z,14.73
2023-02-07T14:59:36.021Z,11.17
2023-02-07T15:02:39.246Z,11.30
2023-02-07T15:05:28.437Z,13.97
2023-02-07T15:08:04.241Z,11.90
2023-02-07T15:10:33.797Z,12.70
2023-02-07T15:13:01.684Z,11.57
2023-02-07T15:15:31.016Z,10.20
2023-02-07T15:18:02.798Z,11.87
2023-02-07T15:20:34.957Z,11.90
2023-02-07T15:23:07.437Z,15.60
2023-02-07T15:25:35.396Z,12.93
2023-02-07T15:28:25.397Z,14.73
2023-02-07T15:31:06.953Z,10.60
2023-02-07T15:33:39.493Z,11.57
2023-02-07T15:36:25.454Z,13.47
2023-02-07T15:38:52.849Z,12.90
2023-02-07T15:41:19.756Z,11.80
2023-02-07T15:44:01.599Z,14.90
2023-02-07T15:46:47.819Z,14.47
2023-02-07T15:49:37.350Z,13.80
2023-02-07T15:52:12.749Z,15.30
2023-02-07T15:54:44.152Z,14.63
2023-02-07T15:57:28.991Z,11.87
2023-02-07T16:00:00.701Z,14.77
2023-02-07T16:02:32.743Z,13.80
2023-02-07T16:05:07.419Z,13.27
2023-02-07T16:07:33.983Z,15.23
2023-02-07T16:10:18.836Z,14.60
2023-02-07T16:12:53.081Z,13.10
2023-02-07T16:15:53.512Z,15.47
2023-02-07T16:18:40.995Z,15.57
2023-02-07T16:21:14.745Z,15.17
2023-02-07T16:23:42.317Z,14.13
2023-02-07T16:26:09.260Z,15.47
2023-02-07T16:28:36.009Z,17.10
2023-02-07T16:31:02.698Z,17.27
2023-02-07T16:33:29.275Z,13.37
2023-02-07T16:35:55.872Z,18.00
2023-02-07T16:38:22.479Z,13.53
2023-02-07T16:40:49.527Z,14.03
2023-02-07T16:43:40.530Z,16.03
2023-02-07T16:46:07.095Z,14.67
2023-02-07T16:48:33.667Z,15.80
2023-02-07T16:51:01.444Z,15.57
2023-02-07T16:53:28.039Z,16.47
2023-02-07T16:55:56.478Z,16.73
2023-02-07T16:58:29.191Z,14.63
2023-02-07T17:00:56.250Z,16.23
2023-02-07T17:03:23.910Z,15.73
2023-02-07T17:05:50.955Z,14.07
2023-02-07T17:08:27.229Z,14.30
2023-02-07T17:10:59.063Z,15.70
2023-02-07T17:13:26.043Z,12.90
2023-02-07T17:15:52.928Z,15.53
2023-02-07T17:18:21.008Z,13.90
2023-02-07T17:20:48.045Z,16.27
2023-02-07T17:23:14.892Z,21.43
2023-02-07T17:25:42.892Z,18.10
2023-02-07T17:28:13.196Z,16.67
2023-02-07T17:30:41.402Z,13.53
2023-02-07T17:33:09.806Z,16.87
2023-02-07T17:35:37.626Z,15.07
2023-02-07T17:38:04.343Z,13.33
2023-02-07T17:40:39.489Z,14.13
2023-02-07T17:43:07.041Z,12.50
2023-02-07T17:45:36.107Z,14.70
2023-02-07T17:48:04.067Z,13.43
2023-02-07T17:50:36.753Z,15.67
2023-02-07T17:53:03.601Z,13.10
2023-02-07T17:55:32.360Z,16.10
2023-02-07T17:58:00.248Z,13.50
2023-02-07T18:00:30.361Z,12.73
2023-02-07T18:02:57.319Z,11.77
2023-02-07T18:05:25.012Z,11.87
2023-02-07T18:07:52.948Z,12.73
2023-02-07T18:10:23.274Z,13.33
2023-02-07T18:12:50.430Z,13.90
2023-02-07T18:15:19.126Z,13.27
2023-02-07T18:17:47.604Z,17.90
2023-02-07T18:20:27.259Z,14.53
2023-02-07T18:22:55.454Z,12.43
2023-02-07T18:25:22.883Z,13.10
2023-02-07T18:27:51.702Z,15.03
2023-02-07T18:30:20.532Z,13.67
2023-02-07T18:32:47.542Z,15.27
2023-02-07T18:35:14.297Z,14.10
2023-02-07T18:37:41.668Z,12.93
2023-02-07T18:40:10.245Z,13.90
2023-02-07T18:42:36.873Z,14.60
2023-02-07T18:45:03.743Z,15.43
2023-02-07T18:47:32.509Z,13.93
2023-02-07T18:49:59.452Z,13.83
2023-02-07T18:52:26.134Z,15.00
2023-02-07T18:54:52.735Z,14.67
2023-02-07T18:57:19.390Z,13.70
2023-02-07T18:59:46.073Z,12.77
2023-02-07T19:02:13.406Z,12.87
2023-02-07T19:04:40.489Z,12.33
2023-02-07T19:07:07.115Z,11.33
2023-02-07T19:09:34.032Z,11.57
2023-02-07T19:12:01.198Z,14.30
2023-02-07T19:14:32.879Z,13.63
2023-02-07T19:16:59.910Z,13.93
2023-02-07T19:19:29.196Z,12.40
2023-02-07T19:21:56.483Z,11.50
2023-02-07T19:24:24.253Z,13.83
2023-02-07T19:26:53.761Z,13.20
2023-02-07T19:29:28.104Z,13.57
2023-02-07T19:31:59.951Z,11.07
2023-02-07T19:34:26.653Z,12.93
2023-02-07T19:36:53.958Z,11.77
2023-02-07T19:39:21.387Z,14.37
2023-02-07T19:41:48.542Z,15.30
2023-02-07T19:44:17.081Z,14.70
2023-02-07T19:46:44.343Z,13.07
2023-02-07T19:49:12.916Z,14.73
2023-02-07T19:51:40.033Z,12.53
2023-02-07T19:54:06.978Z,11.80
2023-02-07T19:56:34.054Z,12.50
2023-02-07T19:59:03.735Z,14.33
2023-02-07T20:01:33.255Z,14.13
2023-02-07T20:04:00.781Z,15.37
2023-02-07T20:06:31.367Z,16.27
2023-02-07T20:09:03.719Z,15.20
2023-02-07T20:11:30.568Z,14.23
2023-02-07T20:14:06.946Z,12.93
2023-02-07T20:16:36.333Z,18.70
2023-02-07T20:19:05.876Z,17.73
2023-02-07T20:21:34.871Z,16.70
2023-02-07T20:24:02.422Z,14.77
2023-02-07T20:26:38.097Z,17.83
2023-02-07T20:29:09.481Z,16.67
2023-02-07T20:31:37.267Z,17.20
2023-02-07T20:34:05.067Z,17.00
2023-02-07T20:36:33.600Z,16.60
2023-02-07T20:39:00.600Z,16.40
2023-02-07T20:41:29.629Z,17.90
2023-02-07T20:44:04.605Z,16.83
2023-02-07T20:46:32.756Z,15.77
2023-02-07T20:49:05.733Z,15.20
2023-02-07T20:51:32.848Z,18.80
2023-02-07T20:54:01.358Z,17.47
2023-02-07T20:56:28.945Z,18.27
2023-02-07T20:58:57.929Z,15.57
2023-02-07T21:01:30.255Z,18.60
2023-02-07T21:03:59.545Z,20.53
2023-02-07T21:06:27.163Z,17.90
2023-02-07T21:09:05.390Z,17.67
2023-02-07T21:11:39.303Z,20.50
2023-02-07T21:14:15.959Z,17.43
2023-02-07T21:16:42.984Z,15.77
2023-02-07T21:19:10.168Z,17.17
2023-02-07T21:21:37.744Z,18.00
2023-02-07T21:24:04.688Z,21.20
2023-02-07T21:26:31.328Z,19.03
2023-02-07T21:29:03.040Z,21.50
2023-02-07T21:31:31.356Z,18.73
2023-02-07T21:33:58.469Z,19.47
2023-02-07T21:36:30.477Z,19.47
2023-02-07T21:38:59.464Z,19.50
2023-02-07T21:41:28.755Z,21.93
2023-02-07T21:43:56.922Z,17.23
2023-02-07T21:46:26.533Z,21.50
2023-02-07T21:48:58.197Z,23.10
2023-02-07T21:51:26.052Z,22.27
2023-02-07T21:53:54.466Z,20.00
2023-02-07T21:56:26.779Z,21.37
2023-02-07T21:58:58.619Z,22.33
2023-02-07T22:01:26.159Z,18.87
2023-02-07T22:03:56.324Z,23.63
2023-02-07T22:06:23.661Z,17.23
2023-02-07T22:08:52.448Z,22.03
2023-02-07T22:11:21.633Z,21.17
2023-02-07T22:13:51.234Z,20.90
2023-02-07T22:16:19.674Z,20.20
2023-02-07T22:18:46.324Z,21.83
2023-02-07T22:21:19.048Z,21.87
2023-02-07T22:23:46.358Z,18.70
2023-02-07T22:26:13.638Z,21.57
2023-02-07T22:28:41.589Z,19.00
2023-02-07T22:31:13.225Z,23.07
2023-02-07T22:33:40.072Z,22.07
2023-02-07T22:36:22.617Z,23.20
2023-02-07T22:38:50.391Z,22.50
2023-02-07T22:41:17.728Z,20.63
2023-02-07T22:43:44.613Z,23.77
2023-02-07T22:46:14.676Z,20.23
2023-02-07T22:48:41.519Z,19.20
2023-02-07T22:51:17.828Z,23.20
2023-02-07T22:53:44.964Z,23.63
2023-02-07T22:56:12.248Z,21.47
2023-02-07T22:58:40.650Z,18.37
2023-02-07T23:01:08.065Z,19.07
2023-02-07T23:03:34.836Z,22.07
2023-02-07T23:06:05.663Z,22.03
2023-02-07T23:08:32.578Z,20.87
2023-02-07T23:10:59.187Z,21.83
2023-02-07T23:13:26.318Z,25.53
2023-02-07T23:15:53.974Z,22.33
2023-02-07T23:18:20.857Z,25.73
2023-02-07T23:20:47.652Z,25.23
2023-02-07T23:23:14.284Z,20.80
2023-02-07T23:25:45.838Z,22.63
2023-02-07T23:28:13.739Z,23.80
2023-02-07T23:30:41.732Z,16.93
2023-02-07T23:33:09.798Z,22.47
2023-02-07T23:35:36.787Z,21.00
2023-02-07T23:38:04.018Z,21.83
2023-02-07T23:40:30.765Z,23.30
2023-02-07T23:42:57.737Z,20.30
2023-02-07T23:45:25.138Z,22.30
2023-02-07T23:47:51.779Z,23.83
2023-02-07T23:50:18.690Z,29.17
2023-02-07T23:52:45.458Z,23.00
2023-02-07T23:55:12.275Z,23.63
2023-02-07T23:57:39.003Z,21.90
